createdAt,value
2023-04-30T00:01:03.973Z,49.87
2023-04-30T00:03:30.450Z,49.44
2023-04-30T00:05:57.120Z,49.96
2023-04-30T00:08:23.579Z,49.81
2023-04-30T00:10:49.985Z,49.65
2023-04-30T00:13:16.457Z,49.27
2023-04-30T00:15:43.000Z,48.25
2023-04-30T00:18:09.585Z,48.13
2023-04-30T00:20:36.040Z,48.56
2023-04-30T00:23:02.672Z,49.68
2023-04-30T00:25:29.115Z,49.53
2023-04-30T00:27:55.554Z,50.32
2023-04-30T00:30:22.022Z,50.75
2023-04-30T00:32:48.493Z,51.15
2023-04-30T00:35:15.052Z,50.19
2023-04-30T00:37:41.569Z,49.74
2023-04-30T00:40:08.031Z,48.94
2023-04-30T00:42:35.600Z,49.21
2023-04-30T00:45:02.060Z,48.35
2023-04-30T00:47:28.530Z,48.00
2023-04-30T00:49:55.241Z,47.32
2023-04-30T00:52:21.938Z,47.89
2023-04-30T00:54:48.336Z,47.59
2023-04-30T00:57:14.764Z,47.74
2023-04-30T00:59:41.263Z,47.66
2023-04-30T01:02:07.705Z,47.84
2023-04-30T01:04:34.670Z,46.85
2023-04-30T01:07:01.537Z,46.94
2023-04-30T01:09:27.967Z,46.52
2023-04-30T01:11:54.395Z,46.25
2023-04-30T01:14:20.777Z,46.16
2023-04-30T01:16:47.252Z,46.40
2023-04-30T01:19:13.754Z,46.54
2023-04-30T01:21:41.063Z,46.08
2023-04-30T01:24:07.592Z,45.75
2023-04-30T01:26:34.078Z,45.79
2023-04-30T01:29:00.475Z,46.20
2023-04-30T01:31:26.934Z,45.76
2023-04-30T01:33:53.368Z,46.58
2023-04-30T01:36:19.779Z,46.73
2023-04-30T01:38:46.317Z,47.28
2023-04-30T01:41:13.028Z,46.72
2023-04-30T01:43:39.558Z,46.76
2023-04-30T01:46:05.988Z,47.62
2023-04-30T01:48:32.443Z,47.72
2023-04-30T01:50:58.938Z,47.38
2023-04-30T01:53:25.418Z,47.43
2023-04-30T01:55:51.849Z,47.24
2023-04-30T01:58:19.217Z,47.75
2023-04-30T02:00:45.657Z,47.53
2023-04-30T02:03:12.274Z,47.51
2023-04-30T02:05:38.850Z,47.22
2023-04-30T02:08:05.325Z,46.87
2023-04-30T02:10:31.729Z,48.85
2023-04-30T02:12:58.414Z,48.46
2023-04-30T02:15:24.837Z,48.07
2023-04-30T02:17:51.280Z,46.91
2023-04-30T02:20:17.762Z,47.01
2023-04-30T02:22:44.198Z,47.96
2023-04-30T02:25:10.615Z,47.91
2023-04-30T02:27:37.053Z,48.33
2023-04-30T02:30:03.484Z,47.60
2023-04-30T02:32:29.912Z,48.08
2023-04-30T02:34:56.576Z,48.15
2023-04-30T02:37:22.990Z,48.62
2023-04-30T02:39:49.422Z,47.54
2023-04-30T02:42:15.857Z,48.07
2023-04-30T02:44:42.256Z,47.95
2023-04-30T02:47:08.674Z,47.90
2023-04-30T02:49:35.284Z,47.64
2023-04-30T02:52:01.745Z,47.61
2023-04-30T02:54:28.181Z,47.11
2023-04-30T02:56:54.611Z,46.73
2023-04-30T02:59:21.014Z,47.29
2023-04-30T03:01:47.541Z,46.67
2023-04-30T03:04:13.950Z,47.92
2023-04-30T03:06:40.417Z,48.02
2023-04-30T03:09:06.846Z,47.54
2023-04-30T03:11:33.299Z,47.24
2023-04-30T03:13:59.732Z,47.25
2023-04-30T03:16:26.243Z,47.48
2023-04-30T03:18:52.775Z,47.42
2023-04-30T03:21:19.294Z,47.64
2023-04-30T03:23:45.655Z,47.54
2023-04-30T03:26:12.090Z,47.18
2023-04-30T03:28:38.552Z,47.00
2023-04-30T03:31:05.072Z,47.02
2023-04-30T03:33:32.007Z,47.01
2023-04-30T03:35:58.422Z,47.57
2023-04-30T03:38:24.887Z,48.37
2023-04-30T03:40:51.364Z,47.31
2023-04-30T03:43:17.858Z,47.34
2023-04-30T03:45:44.330Z,47.49
2023-04-30T03:48:10.762Z,47.93
2023-04-30T03:50:37.239Z,48.25
2023-04-30T03:53:03.661Z,48.50
2023-04-30T03:55:30.131Z,49.00
2023-04-30T03:57:57.083Z,47.74
2023-04-30T04:00:23.530Z,48.05
2023-04-30T04:02:49.991Z,47.35
2023-04-30T04:05:16.465Z,47.52
2023-04-30T04:07:42.911Z,47.63
2023-04-30T04:10:09.353Z,47.65
2023-04-30T04:12:35.813Z,47.92
2023-04-30T04:15:02.311Z,47.84
2023-04-30T04:17:28.888Z,48.22
2023-04-30T04:19:55.478Z,47.41
2023-04-30T04:22:22.196Z,47.38
2023-04-30T04:24:48.616Z,47.56
2023-04-30T04:27:15.063Z,47.00
2023-04-30T04:29:41.479Z,47.23
2023-04-30T04:32:07.993Z,48.20
2023-04-30T04:34:34.481Z,49.08
2023-04-30T04:37:00.917Z,47.98
2023-04-30T04:39:27.588Z,49.08
2023-04-30T04:41:54.072Z,48.59
2023-04-30T04:44:20.490Z,48.13
2023-04-30T04:46:46.974Z,49.00
2023-04-30T04:49:13.567Z,48.30
2023-04-30T04:51:39.970Z,48.09
2023-04-30T04:54:06.446Z,48.31
2023-04-30T04:56:32.852Z,49.58
2023-04-30T04:58:59.573Z,48.78
2023-04-30T05:01:26.121Z,49.43
2023-04-30T05:03:52.749Z,48.55
2023-04-30T05:06:19.833Z,48.31
2023-04-30T05:08:46.243Z,48.15
2023-04-30T05:11:14.247Z,48.56
2023-04-30T05:13:42.008Z,49.25
2023-04-30T05:16:08.565Z,49.60
2023-04-30T05:18:35.101Z,49.01
2023-04-30T05:21:01.499Z,48.74
2023-04-30T05:23:27.936Z,47.09
2023-04-30T05:25:54.302Z,47.57
2023-04-30T05:28:20.725Z,46.94
2023-04-30T05:30:47.156Z,48.88
2023-04-30T05:33:13.594Z,48.88
2023-04-30T05:35:40.027Z,48.52
2023-04-30T05:38:06.424Z,47.61
2023-04-30T05:40:32.899Z,47.00
2023-04-30T05:42:59.823Z,48.56
2023-04-30T05:45:26.391Z,48.31
2023-04-30T05:47:53.642Z,47.24
2023-04-30T05:50:20.108Z,47.30
2023-04-30T05:52:46.508Z,46.74
2023-04-30T05:55:12.919Z,46.37
2023-04-30T05:57:39.404Z,48.45
2023-04-30T06:00:05.993Z,47.74
2023-04-30T06:02:32.649Z,47.95
2023-04-30T06:04:59.356Z,46.83
2023-04-30T06:07:25.814Z,46.51
2023-04-30T06:09:52.407Z,46.05
2023-04-30T06:12:19.035Z,47.53
2023-04-30T06:14:45.521Z,47.70
2023-04-30T06:17:11.966Z,47.38
2023-04-30T06:19:38.365Z,45.98
2023-04-30T06:22:04.866Z,45.59
2023-04-30T06:24:31.273Z,46.03
2023-04-30T06:26:57.686Z,45.96
2023-04-30T06:29:25.237Z,45.92
2023-04-30T06:31:51.791Z,44.75
2023-04-30T06:34:19.261Z,44.29
2023-04-30T06:36:45.825Z,44.61
2023-04-30T06:39:12.264Z,44.08
2023-04-30T06:41:38.696Z,44.26
2023-04-30T06:44:05.134Z,44.33
2023-04-30T06:46:32.650Z,43.95
2023-04-30T06:48:59.156Z,43.34
2023-04-30T06:51:25.655Z,42.40
2023-04-30T06:53:52.063Z,42.46
2023-04-30T06:56:18.532Z,41.83
2023-04-30T06:58:45.449Z,42.51
2023-04-30T07:01:11.958Z,44.25
2023-04-30T07:03:38.587Z,42.24
2023-04-30T07:06:05.324Z,42.42
2023-04-30T07:08:31.760Z,42.48
2023-04-30T07:10:58.288Z,41.77
2023-04-30T07:13:24.823Z,41.09
2023-04-30T07:15:51.834Z,41.29
2023-04-30T07:18:18.567Z,41.33
2023-04-30T07:20:45.035Z,41.61
2023-04-30T07:23:11.501Z,41.78
2023-04-30T07:25:38.029Z,43.30
2023-04-30T07:28:04.564Z,43.67
2023-04-30T07:30:31.021Z,44.15
2023-04-30T07:32:57.534Z,44.55
2023-04-30T07:35:23.998Z,43.68
2023-04-30T07:37:50.474Z,42.54
2023-04-30T07:40:25.455Z,43.11
2023-04-30T07:43:01.148Z,41.44
2023-04-30T07:45:27.588Z,40.12
2023-04-30T07:47:54.184Z,40.20
2023-04-30T07:50:20.699Z,40.04
2023-04-30T07:52:47.184Z,40.64
2023-04-30T07:55:13.790Z,39.47
2023-04-30T07:57:40.329Z,38.95
2023-04-30T08:00:07.074Z,38.21
2023-04-30T08:02:33.617Z,38.68
2023-04-30T08:05:00.320Z,37.80
2023-04-30T08:07:26.928Z,37.15
2023-04-30T08:09:53.591Z,37.10
2023-04-30T08:12:20.165Z,38.33
2023-04-30T08:14:46.570Z,38.67
2023-04-30T08:17:13.026Z,37.93
2023-04-30T08:19:39.628Z,38.01
2023-04-30T08:22:06.060Z,38.19
2023-04-30T08:24:32.597Z,37.68
2023-04-30T08:26:59.042Z,36.49
2023-04-30T08:29:26.540Z,37.47
2023-04-30T08:31:53.002Z,37.06
2023-04-30T08:34:22.007Z,36.57
2023-04-30T08:36:48.394Z,35.88
2023-04-30T08:39:14.837Z,36.34
2023-04-30T08:41:41.440Z,36.90
2023-04-30T08:44:08.640Z,37.45
2023-04-30T08:46:35.301Z,37.07
2023-04-30T08:49:01.863Z,36.21
2023-04-30T08:51:28.519Z,36.14
2023-04-30T08:53:55.302Z,37.36
2023-04-30T08:56:24.691Z,38.10
2023-04-30T08:58:52.102Z,38.46
2023-04-30T09:01:18.624Z,38.31
2023-04-30T09:03:45.303Z,37.71
2023-04-30T09:06:11.911Z,37.85
2023-04-30T09:08:38.559Z,37.43
2023-04-30T09:11:07.054Z,36.59
2023-04-30T09:13:33.621Z,36.33
2023-04-30T09:16:00.325Z,36.42
2023-04-30T09:18:26.891Z,36.85
2023-04-30T09:20:53.550Z,36.33
2023-04-30T09:23:21.079Z,37.72
2023-04-30T09:25:47.607Z,37.97
2023-04-30T09:28:14.261Z,37.99
2023-04-30T09:30:40.741Z,37.48
2023-04-30T09:33:09.896Z,37.55
2023-04-30T09:35:38.032Z,37.19
2023-04-30T09:38:05.341Z,36.60
2023-04-30T09:40:31.785Z,36.57
2023-04-30T09:42:58.444Z,37.15
2023-04-30T09:45:24.950Z,36.32
2023-04-30T09:47:55.663Z,35.67
2023-04-30T09:50:26.459Z,35.66
2023-04-30T09:52:52.942Z,36.21
2023-04-30T09:55:19.457Z,36.75
2023-04-30T09:57:45.922Z,35.74
2023-04-30T10:00:12.647Z,36.22
2023-04-30T10:02:39.153Z,36.70
2023-04-30T10:05:07.732Z,37.00
2023-04-30T10:07:34.265Z,37.23
2023-04-30T10:10:00.779Z,37.68
2023-04-30T10:12:27.369Z,37.42
2023-04-30T10:14:53.862Z,37.09
2023-04-30T10:17:20.871Z,37.97
2023-04-30T10:19:48.019Z,37.79
2023-04-30T10:22:16.020Z,37.36
2023-04-30T10:24:42.424Z,37.38
2023-04-30T10:27:08.931Z,36.69
2023-04-30T10:29:35.982Z,36.68
2023-04-30T10:32:02.514Z,37.42
2023-04-30T10:34:29.128Z,38.24
2023-04-30T10:36:55.581Z,37.82
2023-04-30T10:39:22.452Z,37.24
2023-04-30T10:41:48.905Z,37.83
2023-04-30T10:44:15.517Z,36.91
2023-04-30T10:46:41.976Z,36.96
2023-04-30T10:49:10.812Z,35.80
2023-04-30T10:51:37.272Z,34.95
2023-04-30T10:54:04.632Z,35.66
2023-04-30T10:56:31.418Z,35.50
2023-04-30T10:58:58.321Z,35.89
2023-04-30T11:01:24.980Z,34.96
2023-04-30T11:03:51.476Z,35.40
2023-04-30T11:06:18.021Z,35.45
2023-04-30T11:08:44.492Z,35.26
2023-04-30T11:11:10.969Z,35.34
2023-04-30T11:13:37.418Z,36.13
2023-04-30T11:16:04.547Z,35.65
2023-04-30T11:18:31.015Z,36.28
2023-04-30T11:20:57.503Z,35.69
2023-04-30T11:23:32.166Z,36.28
2023-04-30T11:26:04.749Z,36.98
2023-04-30T11:28:31.390Z,36.66
2023-04-30T11:30:57.971Z,37.12
2023-04-30T11:33:24.467Z,36.91
2023-04-30T11:35:50.984Z,37.57
2023-04-30T11:38:17.635Z,38.86
2023-04-30T11:40:44.431Z,37.74
2023-04-30T11:43:11.137Z,37.75
2023-04-30T11:45:37.577Z,37.01
2023-04-30T11:48:04.209Z,37.00
2023-04-30T11:50:31.170Z,37.03
2023-04-30T11:52:57.637Z,36.27
2023-04-30T11:55:24.082Z,36.11
2023-04-30T11:57:50.506Z,35.26
2023-04-30T12:00:17.043Z,36.03
2023-04-30T12:02:43.625Z,34.73
2023-04-30T12:05:10.127Z,35.58
2023-04-30T12:07:36.535Z,35.59
2023-04-30T12:10:02.988Z,34.55
2023-04-30T12:12:29.430Z,35.78
2023-04-30T12:14:55.951Z,35.09
2023-04-30T12:17:22.452Z,35.79
2023-04-30T12:19:48.955Z,34.93
2023-04-30T12:22:15.531Z,35.51
2023-04-30T12:24:42.044Z,35.12
2023-04-30T12:27:08.434Z,34.57
2023-04-30T12:29:34.959Z,35.55
2023-04-30T12:32:01.423Z,34.88
2023-04-30T12:34:27.919Z,35.23
2023-04-30T12:36:54.634Z,36.30
2023-04-30T12:39:21.061Z,36.85
2023-04-30T12:41:47.472Z,35.63
2023-04-30T12:44:13.955Z,35.61
2023-04-30T12:46:40.538Z,35.29
2023-04-30T12:49:08.375Z,36.29
2023-04-30T12:51:34.837Z,36.78
2023-04-30T12:54:01.800Z,36.64
2023-04-30T12:56:28.919Z,37.21
2023-04-30T12:58:55.410Z,36.54
2023-04-30T13:01:22.090Z,37.60
2023-04-30T13:03:48.741Z,37.83
2023-04-30T13:06:15.290Z,37.30
2023-04-30T13:08:56.232Z,37.08
2023-04-30T13:11:24.778Z,36.43
2023-04-30T13:13:51.240Z,36.18
2023-04-30T13:16:17.762Z,35.40
2023-04-30T13:18:44.198Z,34.48
2023-04-30T13:21:10.813Z,34.89
2023-04-30T13:23:48.662Z,35.17
2023-04-30T13:26:19.512Z,34.42
2023-04-30T13:28:45.960Z,34.72
2023-04-30T13:31:12.606Z,33.61
2023-04-30T13:33:41.948Z,33.78
2023-04-30T13:36:08.372Z,33.10
2023-04-30T13:38:34.871Z,33.25
2023-04-30T13:41:01.287Z,32.72
2023-04-30T13:43:27.838Z,33.07
2023-04-30T13:45:54.475Z,32.89
2023-04-30T13:48:21.016Z,34.14
2023-04-30T13:50:47.711Z,34.86
2023-04-30T13:53:14.147Z,34.19
2023-04-30T13:55:40.688Z,33.66
2023-04-30T13:58:07.185Z,34.22
2023-04-30T14:00:33.690Z,33.09
2023-04-30T14:03:00.307Z,32.22
2023-04-30T14:05:26.827Z,31.75
2023-04-30T14:07:53.283Z,31.85
2023-04-30T14:10:19.744Z,31.97
2023-04-30T14:12:46.136Z,32.72
2023-04-30T14:15:12.592Z,31.18
2023-04-30T14:17:38.988Z,32.16
2023-04-30T14:20:05.486Z,31.69
2023-04-30T14:22:32.323Z,31.13
2023-04-30T14:24:58.770Z,31.60
2023-04-30T14:27:25.232Z,30.86
2023-04-30T14:29:51.641Z,31.35
2023-04-30T14:32:18.211Z,32.32
2023-04-30T14:34:45.990Z,32.14
2023-04-30T14:37:12.618Z,31.88
2023-04-30T14:39:39.062Z,31.53
2023-04-30T14:42:05.634Z,31.61
2023-04-30T14:44:32.139Z,31.39
2023-04-30T14:46:58.554Z,31.59
2023-04-30T14:49:25.969Z,31.78
2023-04-30T14:51:52.592Z,31.71
2023-04-30T14:54:19.130Z,31.98
2023-04-30T14:56:45.790Z,31.65
2023-04-30T14:59:12.411Z,30.48
2023-04-30T15:01:38.929Z,30.26
2023-04-30T15:04:05.544Z,30.10
2023-04-30T15:06:32.070Z,29.29
2023-04-30T15:08:59.014Z,29.21
2023-04-30T15:11:25.463Z,28.37
2023-04-30T15:13:51.923Z,27.29
2023-04-30T15:16:18.902Z,28.71
2023-04-30T15:18:45.406Z,28.32
2023-04-30T15:21:11.853Z,28.27
2023-04-30T15:23:38.549Z,28.25
2023-04-30T15:26:05.010Z,27.78
2023-04-30T15:28:31.508Z,27.68
2023-04-30T15:30:58.242Z,27.77
2023-04-30T15:33:24.852Z,27.87
2023-04-30T15:35:51.383Z,28.25
2023-04-30T15:38:17.824Z,27.98
2023-04-30T15:40:44.289Z,28.51
2023-04-30T15:43:10.741Z,28.30
2023-04-30T15:45:37.249Z,28.38
2023-04-30T15:48:03.735Z,28.17
2023-04-30T15:50:30.241Z,28.04
2023-04-30T15:52:56.670Z,27.66
2023-04-30T15:55:23.133Z,27.84
2023-04-30T15:57:49.584Z,27.55
2023-04-30T16:00:16.088Z,26.98
2023-04-30T16:02:42.599Z,27.71
2023-04-30T16:05:09.114Z,27.57
2023-04-30T16:07:35.537Z,26.83
2023-04-30T16:10:03.006Z,27.28
2023-04-30T16:12:29.519Z,27.36
2023-04-30T16:14:55.969Z,27.61
2023-04-30T16:17:22.441Z,27.60
2023-04-30T16:19:48.939Z,27.93
2023-04-30T16:22:15.675Z,27.52
2023-04-30T16:24:42.170Z,27.55
2023-04-30T16:27:08.894Z,27.07
2023-04-30T16:29:35.510Z,27.74
2023-04-30T16:32:03.424Z,27.87
2023-04-30T16:34:30.196Z,27.91
2023-04-30T16:36:56.631Z,28.27
2023-04-30T16:39:23.065Z,28.03
2023-04-30T16:41:49.482Z,28.26
2023-04-30T16:44:16.425Z,28.44
2023-04-30T16:46:42.974Z,27.92
2023-04-30T16:49:09.489Z,28.33
2023-04-30T16:51:36.269Z,27.81
2023-04-30T16:54:02.873Z,28.80
2023-04-30T16:56:29.257Z,28.59
2023-04-30T16:58:55.770Z,28.38
2023-04-30T17:01:22.509Z,28.76
2023-04-30T17:03:49.578Z,28.69
2023-04-30T17:06:16.146Z,28.86
2023-04-30T17:08:43.866Z,28.87
2023-04-30T17:11:10.672Z,28.99
2023-04-30T17:13:37.180Z,28.76
2023-04-30T17:16:03.623Z,29.47
2023-04-30T17:18:30.970Z,30.17
2023-04-30T17:20:57.470Z,29.03
2023-04-30T17:23:24.419Z,30.07
2023-04-30T17:25:50.984Z,29.33
2023-04-30T17:28:17.581Z,29.50
2023-04-30T17:30:44.144Z,29.63
2023-04-30T17:33:10.586Z,29.87
2023-04-30T17:35:37.109Z,30.91
2023-04-30T17:38:04.338Z,30.67
2023-04-30T17:40:31.070Z,30.14
2023-04-30T17:42:57.729Z,30.45
2023-04-30T17:45:24.496Z,30.75
2023-04-30T17:47:51.286Z,30.59
2023-04-30T17:50:19.083Z,30.80
2023-04-30T17:52:45.663Z,30.76
2023-04-30T17:55:12.562Z,31.21
2023-04-30T17:57:39.490Z,31.59
2023-04-30T18:00:05.961Z,31.32
2023-04-30T18:02:32.634Z,30.96
2023-04-30T18:04:59.698Z,31.64
2023-04-30T18:07:26.250Z,31.35
2023-04-30T18:09:53.551Z,32.27
2023-04-30T18:12:20.896Z,32.27
2023-04-30T18:14:48.435Z,32.32
2023-04-30T18:17:15.011Z,32.31
2023-04-30T18:19:41.421Z,32.36
2023-04-30T18:22:12.402Z,32.43
2023-04-30T18:24:39.150Z,32.79
2023-04-30T18:27:05.736Z,32.91
2023-04-30T18:29:32.551Z,32.70
2023-04-30T18:31:59.212Z,32.69
2023-04-30T18:34:25.891Z,33.08
2023-04-30T18:36:52.366Z,33.30
2023-04-30T18:39:19.288Z,33.51
2023-04-30T18:41:46.487Z,33.25
2023-04-30T18:44:13.383Z,32.98
2023-04-30T18:46:40.375Z,33.08
2023-04-30T18:49:07.679Z,33.25
2023-04-30T18:51:34.289Z,33.16
2023-04-30T18:54:00.856Z,33.23
2023-04-30T18:56:27.418Z,33.26
2023-04-30T18:58:54.369Z,33.82
2023-04-30T19:01:21.033Z,34.33
2023-04-30T19:03:47.523Z,34.35
2023-04-30T19:06:14.323Z,34.53
2023-04-30T19:08:40.888Z,34.00
2023-04-30T19:11:07.760Z,34.13
2023-04-30T19:13:34.441Z,34.54
2023-04-30T19:16:01.110Z,34.95
2023-04-30T19:18:27.831Z,34.57
2023-04-30T19:20:54.358Z,34.44
2023-04-30T19:23:21.205Z,34.31
2023-04-30T19:25:47.955Z,34.84
2023-04-30T19:28:15.279Z,34.57
2023-04-30T19:30:43.670Z,34.64
2023-04-30T19:33:10.319Z,34.44
2023-04-30T19:35:37.023Z,34.28
2023-04-30T19:38:03.933Z,34.86
2023-04-30T19:40:30.808Z,34.45
2023-04-30T19:42:57.944Z,34.46
2023-04-30T19:45:24.488Z,34.81
2023-04-30T19:47:51.273Z,35.07
2023-04-30T19:50:18.060Z,34.92
2023-04-30T19:52:44.778Z,35.12
2023-04-30T19:55:12.150Z,35.14
2023-04-30T19:57:38.939Z,34.80
2023-04-30T20:00:05.990Z,35.68
2023-04-30T20:02:33.320Z,35.96
2023-04-30T20:05:00.224Z,35.61
2023-04-30T20:07:27.061Z,35.54
2023-04-30T20:09:54.261Z,35.56
2023-04-30T20:12:21.348Z,35.32
2023-04-30T20:14:47.953Z,35.22
2023-04-30T20:17:16.076Z,34.89
2023-04-30T20:19:42.572Z,35.24
2023-04-30T20:22:09.414Z,35.44
2023-04-30T20:24:36.450Z,35.30
2023-04-30T20:27:05.414Z,35.23
2023-04-30T20:29:32.119Z,35.32
2023-04-30T20:32:01.630Z,35.27
2023-04-30T20:34:28.446Z,35.65
2023-04-30T20:36:55.352Z,35.41
2023-04-30T20:39:22.801Z,35.52
2023-04-30T20:41:49.423Z,35.83
2023-04-30T20:44:15.875Z,35.99
2023-04-30T20:46:42.641Z,34.81
2023-04-30T20:49:09.220Z,35.15
2023-04-30T20:51:35.740Z,33.93
2023-04-30T20:54:02.196Z,34.27
2023-04-30T20:56:28.570Z,33.37
2023-04-30T20:58:54.995Z,34.24
2023-04-30T21:01:21.661Z,31.81
2023-04-30T21:03:48.255Z,33.69
2023-04-30T21:06:15.132Z,31.69
2023-04-30T21:08:41.628Z,32.13
2023-04-30T21:11:08.061Z,33.42
2023-04-30T21:13:34.596Z,32.64
2023-04-30T21:16:01.042Z,32.33
2023-04-30T21:18:27.466Z,32.77
2023-04-30T21:20:53.901Z,31.42
2023-04-30T21:23:20.405Z,31.30
2023-04-30T21:25:47.120Z,31.92
2023-04-30T21:28:13.660Z,31.73
2023-04-30T21:30:40.079Z,32.52
2023-04-30T21:33:06.604Z,32.76
2023-04-30T21:35:33.318Z,32.48
2023-04-30T21:37:59.741Z,31.98
2023-04-30T21:40:26.173Z,32.28
2023-04-30T21:42:52.697Z,31.59
2023-04-30T21:45:19.362Z,31.85
2023-04-30T21:47:46.140Z,31.91
2023-04-30T21:50:12.594Z,32.11
2023-04-30T21:52:39.066Z,32.44
2023-04-30T21:55:05.514Z,31.90
2023-04-30T21:57:32.108Z,32.38
2023-04-30T21:59:58.742Z,31.91
2023-04-30T22:02:25.460Z,31.92
2023-04-30T22:04:51.997Z,32.48
2023-04-30T22:07:18.428Z,32.68
2023-04-30T22:09:45.064Z,32.13
2023-04-30T22:12:11.626Z,32.13
2023-04-30T22:14:38.073Z,31.87
2023-04-30T22:17:04.587Z,32.27
2023-04-30T22:19:31.082Z,32.54
2023-04-30T22:21:57.479Z,33.26
2023-04-30T22:24:23.931Z,32.92
2023-04-30T22:26:50.354Z,32.30
2023-04-30T22:29:16.846Z,32.17
2023-04-30T22:31:43.494Z,32.56
2023-04-30T22:34:09.982Z,32.39
2023-04-30T22:36:36.382Z,32.47
2023-04-30T22:39:02.791Z,31.91
2023-04-30T22:41:29.319Z,32.70
2023-04-30T22:43:57.140Z,32.78
2023-04-30T22:46:23.697Z,33.03
2023-04-30T22:48:50.209Z,32.40
2023-04-30T22:51:16.949Z,32.22
2023-04-30T22:53:43.559Z,31.60
2023-04-30T22:56:10.219Z,32.71
2023-04-30T22:58:36.750Z,33.05
2023-04-30T23:01:03.198Z,31.82
2023-04-30T23:03:29.730Z,31.84
2023-04-30T23:05:56.184Z,32.98
2023-04-30T23:08:22.645Z,32.92
2023-04-30T23:10:49.096Z,31.72
2023-04-30T23:13:15.605Z,32.09
2023-04-30T23:15:43.438Z,31.46
2023-04-30T23:18:10.835Z,31.56
2023-04-30T23:20:37.328Z,32.83
2023-04-30T23:23:03.766Z,31.88
2023-04-30T23:25:30.206Z,32.68
2023-04-30T23:27:57.291Z,32.40
2023-04-30T23:30:23.770Z,31.59
2023-04-30T23:32:50.567Z,31.22
2023-04-30T23:35:17.122Z,32.07
2023-04-30T23:37:43.840Z,31.56
2023-04-30T23:40:10.659Z,32.84
2023-04-30T23:42:37.168Z,31.89
2023-04-30T23:45:03.655Z,32.31
2023-04-30T23:47:32.892Z,32.82
2023-04-30T23:49:59.476Z,32.83
2023-04-30T23:52:26.086Z,31.83
2023-04-30T23:54:52.537Z,32.91
2023-04-30T23:57:19.028Z,33.04
2023-04-30T23:59:45.569Z,32.73
